Station Historical Data
Daily Summary for December 4, 2017 Units:  Metric    English   Both
« Previous Day
Next Day »
Daily Weekly Monthly Yearly Custom
  High: Low: Average:
Temperature: 11.4 °C -1.8 °C 5.7 °C
Dew Point: 2.7 °C -2.9 °C 0 °C
Humidity: 93% 49% 70%
Wind Speed: 17.7km/h 0km/h 3.5km/h
Wind Gust: 27.4km/h - -
Wind- - SSE
Pressure: 1027 hPa 1012.8 hPa -
Precipitation: 0 mm    
Historical Graphs
 
 
Tabular Data for December 4, 2017
Time Temperature Dew Point Pressure Wind Wind Speed Wind Gust Humidity Rainfall Rate (Hourly)
00:04 -1.1 °C -2.4 °C 1025.3 hPa Calm     91% 0 mm
00:09 -1.2 °C -2.4 °C 1025.3 hPa Calm     91% 0 mm
00:14 -1.2 °C -2.5 °C 1025.6 hPa Calm     91% 0 mm
00:19 -1.3 °C -2.6 °C 1025.6 hPa Calm     91% 0 mm
00:24 -1.1 °C -2.4 °C 1025.6 hPa Calm     91% 0 mm
00:29 -1.1 °C -2.4 °C 1025.6 hPa Calm     91% 0 mm
00:39 -0.9 °C -2.2 °C 1025.6 hPa Calm     91% 0 mm
00:44 -0.7 °C -1.9 °C 1025.3 hPa Calm     91% 0 mm
00:49 -0.8 °C -2.1 °C 1025.3 hPa Calm     91% 0 mm
00:54 -0.9 °C -2.2 °C 1025.3 hPa Calm     91% 0 mm
00:59 -1.1 °C -2.3 °C 1025.3 hPa Calm     91% 0 mm
01:04 -1.2 °C -2.4 °C 1025.3 hPa Calm     91% 0 mm
01:09 -1.3 °C -2.6 °C 1025.3 hPa Calm     91% 0 mm
01:14 -1.3 °C -2.6 °C 1025.3 hPa Calm     91% 0 mm
01:19 -1.6 °C -2.8 °C 1025.3 hPa Calm     91% 0 mm
01:24 -1.5 °C -2.8 °C 1025.3 hPa Calm     91% 0 mm
01:29 -1.6 °C -2.8 °C 1025.3 hPa Calm     91% 0 mm
01:34 -1.6 °C -2.9 °C 1025.3 hPa Calm     91% 0 mm
01:39 -1.7 °C -2.9 °C 1025.3 hPa Calm     91% 0 mm
01:44 -1.7 °C -2.8 °C 1025.3 hPa Calm     92% 0 mm
01:49 -1.5 °C -2.6 °C 1025.3 hPa Calm     92% 0 mm
01:54 -1.3 °C -2.4 °C 1025.3 hPa Calm     92% 0 mm
01:59 -1.3 °C -2.6 °C 1025.3 hPa Calm     91% 0 mm
02:04 -1.3 °C -2.4 °C 1025.3 hPa Calm     92% 0 mm
02:09 -1.2 °C -2.3 °C 1025.3 hPa Calm     92% 0 mm
02:14 -1.1 °C -2.2 °C 1025.3 hPa Calm     92% 0 mm
02:19 -1.2 °C -2.3 °C 1025.3 hPa Calm     92% 0 mm
02:24 -1.2 °C -2.3 °C 1025.3 hPa Calm     92% 0 mm
02:29 -1.2 °C -2.3 °C 1025.6 hPa Calm     92% 0 mm
02:34 -1.2 °C -2.3 °C 1025.6 hPa Calm     92% 0 mm
02:39 -1.3 °C -2.4 °C 1025.6 hPa Calm     92% 0 mm
02:44 -1.5 °C -2.8 °C 1026 hPa Calm     91% 0 mm
02:49 -1.7 °C -2.8 °C 1026 hPa Calm     92% 0 mm
02:54 -1.7 °C -2.8 °C 1026 hPa Calm     92% 0 mm
02:59 -1.6 °C -2.7 °C 1026 hPa Calm     92% 0 mm
03:04 -1.3 °C -2.4 °C 1026 hPa Calm     92% 0 mm
03:09 -1.1 °C -2.2 °C 1026 hPa Calm     92% 0 mm
03:14 -1.1 °C -2.2 °C 1026 hPa Calm     92% 0 mm
03:19 -1.2 °C -2.3 °C 1025.6 hPa Calm     92% 0 mm
03:24 -1.1 °C -2.2 °C 1025.6 hPa Calm     92% 0 mm
03:29 -0.9 °C -2.1 °C 1025.6 hPa Calm     92% 0 mm
03:34 -1.1 °C -2.2 °C 1025.6 hPa Calm     92% 0 mm
03:39 -1.3 °C -2.4 °C 1026 hPa Calm     92% 0 mm
03:44 -1.5 °C -2.6 °C 1026 hPa Calm     92% 0 mm
03:49 -1.6 °C -2.7 °C 1026 hPa Calm     92% 0 mm
03:54 -1.6 °C -2.7 °C 1026 hPa Calm     92% 0 mm
03:59 -1.8 °C -2.9 °C 1026 hPa Calm     92% 0 mm
04:04 -1.8 °C -2.9 °C 1026 hPa Calm     92% 0 mm
04:09 -1.8 °C -2.9 °C 1026 hPa Calm     92% 0 mm
04:14 -1.6 °C -2.7 °C 1026 hPa Calm     92% 0 mm
04:19 -1.6 °C -2.7 °C 1026.3 hPa Calm     92% 0 mm
04:24 -1.8 °C -2.9 °C 1026.3 hPa Calm     92% 0 mm
04:29 -1.8 °C -2.9 °C 1026.3 hPa Calm     92% 0 mm
04:34 -1.7 °C -2.8 °C 1026.3 hPa Calm     92% 0 mm
04:39 -1.5 °C -2.6 °C 1026.3 hPa Calm     92% 0 mm
04:44 -1.5 °C -2.6 °C 1026.3 hPa Calm     92% 0 mm
04:49 -1.6 °C -2.7 °C 1026.3 hPa Calm     92% 0 mm
04:54 -1.6 °C -2.7 °C 1026.3 hPa Calm     92% 0 mm
04:59 -1.4 °C -2.5 °C 1026.3 hPa Calm     92% 0 mm
05:04 -1.3 °C -2.3 °C 1026.3 hPa Calm     93% 0 mm
05:09 -1.3 °C -2.4 °C 1026.3 hPa Calm     92% 0 mm
05:14 -1.3 °C -2.4 °C 1026 hPa Calm     92% 0 mm
05:19 -1.2 °C -2.2 °C 1026 hPa Calm     93% 0 mm
05:24 -1.2 °C -2.3 °C 1026 hPa Calm     92% 0 mm
05:29 -1.1 °C -2.2 °C 1026.3 hPa Calm     92% 0 mm
05:34 -1.3 °C -2.4 °C 1026.3 hPa Calm     92% 0 mm
05:39 -1.2 °C -2.2 °C 1026.3 hPa Calm     93% 0 mm
05:49 -0.9 °C -1.9 °C 1026 hPa Calm     93% 0 mm
05:54 -0.8 °C -1.8 °C 1026 hPa Calm     93% 0 mm
05:59 -0.7 °C -1.7 °C 1026 hPa Calm     93% 0 mm
06:04 -0.7 °C -1.7 °C 1026 hPa Calm     93% 0 mm
06:09 -0.7 °C -1.8 °C 1026 hPa Calm     92% 0 mm
06:14 -0.7 °C -1.7 °C 1026.3 hPa Calm     93% 0 mm
06:19 -0.6 °C -1.7 °C 1026.3 hPa Calm     92% 0 mm
06:24 -0.7 °C -1.8 °C 1026.3 hPa Calm     92% 0 mm
06:29 -0.8 °C -1.9 °C 1026.6 hPa Calm     92% 0 mm
06:34 -0.7 °C -1.7 °C 1026.6 hPa Calm     93% 0 mm
06:39 -0.6 °C -1.6 °C 1026.6 hPa Calm     93% 0 mm
06:44 -0.6 °C -1.6 °C 1026.6 hPa Calm     93% 0 mm
06:49 -0.5 °C -1.5 °C 1026.6 hPa Calm     93% 0 mm
06:54 -0.4 °C -1.4 °C 1027 hPa Calm     93% 0 mm
06:59 -0.6 °C -1.7 °C 1027 hPa Calm     92% 0 mm
07:04 -0.5 °C -1.5 °C 1027 hPa Calm     93% 0 mm
07:09 -0.3 °C -1.3 °C 1026.6 hPa Calm     93% 0 mm
07:14 -0.2 °C -1.2 °C 1026.6 hPa Calm     93% 0 mm
07:19 -0.1 °C -1.1 °C 1026.6 hPa Calm     93% 0 mm
07:24 -0.1 °C -1.1 °C 1026.3 hPa Calm     93% 0 mm
07:29 0 °C -1 °C 1026.6 hPa Calm     93% 0 mm
07:34 0 °C -1 °C 1026.6 hPa Calm     93% 0 mm
07:39 0.1 °C -0.9 °C 1026.3 hPa Calm     93% 0 mm
07:49 0.2 °C -0.8 °C 1026.3 hPa Calm   3.2 km/h 93% 0 mm
07:54 0.2 °C -0.8 °C 1026.3 hPa ESE 1.6 km/h 4.8 km/h 93% 0 mm
07:59 0.3 °C -0.8 °C 1026.3 hPa ESE 1.6 km/h 4.8 km/h 92% 0 mm
08:04 0.4 °C -0.6 °C 1026.3 hPa Calm   6.4 km/h 93% 0 mm
08:09 0.5 °C -0.5 °C 1026.3 hPa Calm     93% 0 mm
08:14 0.6 °C -0.6 °C 1026.6 hPa Calm     92% 0 mm
08:19 0.7 °C -0.4 °C 1026.3 hPa ESE 1.6 km/h 4.8 km/h 92% 0 mm
08:24 0.8 °C -0.3 °C 1026.3 hPa Calm   3.2 km/h 92% 0 mm
08:29 0.9 °C -0.3 °C 1026.3 hPa East 1.6 km/h 4.8 km/h 92% 0 mm
08:34 1 °C -0.3 °C 1026.3 hPa ESE 1.6 km/h 6.4 km/h 91% 0 mm
08:39 1.1 °C -0.2 °C 1026.3 hPa Calm   6.4 km/h 91% 0 mm
08:44 1.2 °C -0.1 °C 1026.3 hPa Calm   4.8 km/h 91% 0 mm
08:49 1.3 °C 0 °C 1026.3 hPa Calm     91% 0 mm
08:54 1.5 °C 0.1 °C 1026.3 hPa Calm   1.6 km/h 90% 0 mm
08:59 1.7 °C 0.2 °C 1026 hPa Calm   3.2 km/h 90% 0 mm
09:04 1.8 °C 0.2 °C 1026 hPa East 3.2 km/h 4.8 km/h 89% 0 mm
09:09 1.9 °C 0.3 °C 1026 hPa Calm   4.8 km/h 89% 0 mm
09:14 2.1 °C 0.3 °C 1026 hPa Calm   4.8 km/h 88% 0 mm
09:19 2.3 °C 0.6 °C 1026 hPa Calm   4.8 km/h 88% 0 mm
09:24 2.6 °C 0.6 °C 1026 hPa SE 1.6 km/h 6.4 km/h 87% 0 mm
09:29 2.7 °C 0.6 °C 1026 hPa Calm   3.2 km/h 86% 0 mm
09:34 2.9 °C 0.7 °C 1026 hPa Calm   4.8 km/h 85% 0 mm
09:39 3.2 °C 0.7 °C 1026 hPa Calm   4.8 km/h 84% 0 mm
09:44 3.4 °C 0.8 °C 1026 hPa Calm   3.2 km/h 83% 0 mm
09:49 3.6 °C 1 °C 1026 hPa Calm   3.2 km/h 83% 0 mm
09:54 3.8 °C 1 °C 1026 hPa SE 1.6 km/h 6.4 km/h 82% 0 mm
09:59 3.9 °C 1.2 °C 1026 hPa SE 1.6 km/h 6.4 km/h 82% 0 mm
10:04 4.1 °C 0.9 °C 1025.6 hPa SSE 1.6 km/h 6.4 km/h 80% 0 mm
10:09 4.3 °C 1.1 °C 1025.6 hPa Calm   4.8 km/h 80% 0 mm
10:14 4.5 °C 1.2 °C 1025.6 hPa SE 3.2 km/h 4.8 km/h 79% 0 mm
10:19 4.7 °C 1.2 °C 1025.3 hPa Calm   6.4 km/h 78% 0 mm
10:24 4.9 °C 1.4 °C 1025.3 hPa SE 1.6 km/h 4.8 km/h 78% 0 mm
10:29 5.1 °C 1.4 °C 1025.3 hPa Calm   3.2 km/h 77% 0 mm
10:34 5.3 °C 1.6 °C 1025.3 hPa SE 1.6 km/h 4.8 km/h 77% 0 mm
10:39 5.6 °C 1.7 °C 1025.3 hPa Calm   4.8 km/h 76% 0 mm
10:44 5.7 °C 1.4 °C 1025.3 hPa Calm   3.2 km/h 74% 0 mm
10:49 5.9 °C 1.7 °C 1024.9 hPa Calm     74% 0 mm
10:54 6.1 °C 1.8 °C 1024.9 hPa Calm     74% 0 mm
10:59 6.3 °C 2.1 °C 1024.9 hPa Calm   6.4 km/h 74% 0 mm
11:04 6.7 °C 2.2 °C 1024.6 hPa Calm   6.4 km/h 73% 0 mm
11:09 7.2 °C 2.4 °C 1024.3 hPa SE 1.6 km/h 8 km/h 72% 0 mm
11:14 7.6 °C 2.6 °C 1024.3 hPa SE 1.6 km/h 8 km/h 71% 0 mm
11:19 7.7 °C 2.6 °C 1024.3 hPa ESE 3.2 km/h 6.4 km/h 70% 0 mm
11:24 7.9 °C 2.3 °C 1023.9 hPa SSE 1.6 km/h 8 km/h 68% 0 mm
11:29 8.4 °C 2.7 °C 1023.9 hPa SSE 1.6 km/h 6.4 km/h 67% 0 mm
11:34 8.7 °C 2.5 °C 1023.6 hPa SSE 3.2 km/h 8 km/h 65% 0 mm
11:39 8.9 °C 2.3 °C 1023.6 hPa SE 3.2 km/h 12.9 km/h 63% 0 mm
11:44 8.9 °C 2.1 °C 1023.2 hPa SSE 4.8 km/h 12.9 km/h 62% 0 mm
11:49 8.9 °C 1.8 °C 1022.9 hPa SSE 6.4 km/h 14.5 km/h 61% 0 mm
11:54 9 °C 1.7 °C 1022.6 hPa SE 6.4 km/h 14.5 km/h 60% 0 mm
11:59 9.2 °C 1.8 °C 1022.9 hPa SSE 6.4 km/h 12.9 km/h 60% 0 mm
12:04 9.4 °C 1.3 °C 1022.9 hPa SSE 1.6 km/h 16.1 km/h 57% 0 mm
12:09 9.7 °C 1.6 °C 1022.9 hPa South 4.8 km/h 9.7 km/h 57% 0 mm
12:14 9.8 °C 1.4 °C 1022.9 hPa South 6.4 km/h 11.3 km/h 56% 0 mm
12:19 9.9 °C 2.1 °C 1022.9 hPa South 3.2 km/h 14.5 km/h 58% 0 mm
12:24 10.3 °C 1.7 °C 1022.9 hPa SSE 4.8 km/h 12.9 km/h 55% 0 mm
12:29 10.3 °C 1.4 °C 1022.6 hPa SSE 6.4 km/h 12.9 km/h 54% 0 mm
12:34 10.2 °C 1.6 °C 1022.6 hPa SSE 6.4 km/h 12.9 km/h 55% 0 mm
12:39 10.1 °C 1.2 °C 1022.2 hPa SSE 6.4 km/h 14.5 km/h 54% 0 mm
12:44 9.9 °C 1.1 °C 1022.2 hPa SSE 8 km/h 14.5 km/h 54% 0 mm
12:49 9.9 °C 1.6 °C 1021.9 hPa SSE 6.4 km/h 14.5 km/h 56% 0 mm
12:54 9.9 °C 1.5 °C 1021.9 hPa SSE 4.8 km/h 11.3 km/h 56% 0 mm
12:59 9.9 °C 1.3 °C 1021.6 hPa Calm   11.3 km/h 55% 0 mm
13:04 10 °C 1.4 °C 1021.6 hPa SSE 4.8 km/h 11.3 km/h 55% 0 mm
13:09 10 °C 1.4 °C 1021.6 hPa SSE 4.8 km/h 16.1 km/h 55% 0 mm
13:14 10.2 °C 1.3 °C 1021.2 hPa SE 8 km/h 11.3 km/h 54% 0 mm
13:19 10.3 °C 1.4 °C 1021.2 hPa SE 4.8 km/h 11.3 km/h 54% 0 mm
13:24 10.3 °C 1.4 °C 1021.2 hPa SE 4.8 km/h 11.3 km/h 54% 0 mm
13:29 10.1 °C 1.2 °C 1020.9 hPa SSE 3.2 km/h 11.3 km/h 54% 0 mm
13:34 10 °C 1.4 °C 1020.5 hPa East 4.8 km/h 9.7 km/h 55% 0 mm
13:39 9.9 °C 1.3 °C 1020.5 hPa SE 3.2 km/h 9.7 km/h 55% 0 mm
13:44 9.9 °C 1.3 °C 1020.5 hPa SE 3.2 km/h 8 km/h 55% 0 mm
13:49 9.9 °C 1.3 °C 1020.5 hPa SE 3.2 km/h 8 km/h 55% 0 mm
13:54 10.1 °C 1.4 °C 1020.2 hPa SE 3.2 km/h 6.4 km/h 55% 0 mm
13:59 10.2 °C 1.3 °C 1020.2 hPa Calm   9.7 km/h 54% 0 mm
14:04 10.3 °C 1.2 °C 1019.9 hPa SSE 4.8 km/h 9.7 km/h 53% 0 mm
14:09 10.5 °C 1.3 °C 1020.2 hPa SSE 4.8 km/h 9.7 km/h 53% 0 mm
14:14 10.7 °C 0.9 °C 1019.9 hPa SE 6.4 km/h 14.5 km/h 51% 0 mm
14:19 10.8 °C 0.8 °C 1019.9 hPa SSE 8 km/h 16.1 km/h 50% 0 mm
14:24 10.8 °C 0.8 °C 1019.9 hPa SSE 8 km/h 12.9 km/h 50% 0 mm
14:29 10.8 °C 0.8 °C 1019.9 hPa SSE 9.7 km/h 16.1 km/h 50% 0 mm
14:34 10.8 °C 0.8 °C 1019.9 hPa South 9.7 km/h 12.9 km/h 50% 0 mm
14:39 10.8 °C 0.8 °C 1019.9 hPa South 6.4 km/h 12.9 km/h 50% 0 mm
14:44 10.8 °C 0.8 °C 1019.5 hPa South 6.4 km/h 9.7 km/h 50% 0 mm
14:49 10.8 °C 0.6 °C 1019.5 hPa South 6.4 km/h 9.7 km/h 49% 0 mm
14:54 10.8 °C 0.6 °C 1019.5 hPa South 4.8 km/h 11.3 km/h 49% 0 mm
14:59 10.8 °C 0.8 °C 1019.5 hPa South 6.4 km/h 14.5 km/h 50% 0 mm
15:04 10.8 °C 0.8 °C 1019.5 hPa South 3.2 km/h 12.9 km/h 50% 0 mm
15:09 10.8 °C 0.8 °C 1019.2 hPa SSE 1.6 km/h 11.3 km/h 50% 0 mm
15:14 10.7 °C 0.7 °C 1019.2 hPa SSE 4.8 km/h 12.9 km/h 50% 0 mm
15:19 10.7 °C 0.7 °C 1018.8 hPa South 3.2 km/h 16.1 km/h 50% 0 mm
15:24 10.7 °C 0.9 °C 1018.8 hPa SSE 3.2 km/h 8 km/h 51% 0 mm
15:29 10.7 °C 0.7 °C 1018.8 hPa SSW 3.2 km/h 14.5 km/h 50% 0 mm
15:34 10.7 °C 0.7 °C 1018.8 hPa SSE 6.4 km/h 12.9 km/h 50% 0 mm
15:39 10.7 °C 0.7 °C 1018.8 hPa SSE 6.4 km/h 12.9 km/h 50% 0 mm
15:44 10.7 °C 0.9 °C 1018.8 hPa SSE 4.8 km/h 12.9 km/h 51% 0 mm
15:49 10.7 °C 0.7 °C 1018.8 hPa SSE 4.8 km/h 16.1 km/h 50% 0 mm
15:54 10.7 °C 0.9 °C 1018.8 hPa SSE 4.8 km/h 16.1 km/h 51% 0 mm
15:59 10.6 °C 0.9 °C 1018.8 hPa SSE 4.8 km/h 12.9 km/h 51% 0 mm
16:04 10.7 °C 0.9 °C 1018.5 hPa SSE 6.4 km/h 14.5 km/h 51% 0 mm
16:09 10.7 °C 0.9 °C 1018.5 hPa SSE 8 km/h 14.5 km/h 51% 0 mm
16:14 10.7 °C 0.9 °C 1018.5 hPa SSE 6.4 km/h 14.5 km/h 51% 0 mm
16:19 10.6 °C 0.9 °C 1018.5 hPa Calm   9.7 km/h 51% 0 mm
16:24 10.6 °C 0.8 °C 1018.5 hPa SSE 1.6 km/h 9.7 km/h 51% 0 mm
16:29 10.5 °C 1.1 °C 1018.5 hPa SSE 4.8 km/h 4.8 km/h 52% 0 mm
16:34 10.5 °C 1.1 °C 1018.5 hPa SSE 4.8 km/h 11.3 km/h 52% 0 mm
16:39 10.5 °C 1.1 °C 1018.2 hPa SE 1.6 km/h 9.7 km/h 52% 0 mm
16:44 10.5 °C 1.1 °C 1018.2 hPa SE 4.8 km/h 9.7 km/h 52% 0 mm
16:49 10.5 °C 1.1 °C 1018.2 hPa SSE 4.8 km/h 9.7 km/h 52% 0 mm
16:54 10.5 °C 1.1 °C 1018.5 hPa SSE 4.8 km/h 8 km/h 52% 0 mm
16:59 10.4 °C 1 °C 1018.2 hPa SSE 3.2 km/h 8 km/h 52% 0 mm
17:04 10.4 °C 1.2 °C 1018.5 hPa SSE 3.2 km/h 8 km/h 53% 0 mm
17:09 10.4 °C 1.2 °C 1018.5 hPa SSE 4.8 km/h 9.7 km/h 53% 0 mm
17:14 10.3 °C 1.2 °C 1018.2 hPa SSE 3.2 km/h 9.7 km/h 53% 0 mm
17:19 10.3 °C 1.2 °C 1018.2 hPa SSE 1.6 km/h 6.4 km/h 53% 0 mm
17:24 10.3 °C 1.1 °C 1018.5 hPa SSE 3.2 km/h 6.4 km/h 53% 0 mm
17:29 10.3 °C 1.2 °C 1018.5 hPa Calm   8 km/h 53% 0 mm
17:34 10.3 °C 1.2 °C 1018.2 hPa South 3.2 km/h 6.4 km/h 53% 0 mm
17:39 10.3 °C 1.2 °C 1018.2 hPa South 4.8 km/h 9.7 km/h 53% 0 mm
17:44 10.4 °C 1.2 °C 1018.2 hPa SSE 8 km/h 8 km/h 53% 0 mm
17:49 10.5 °C 1.3 °C 1018.2 hPa South 4.8 km/h 9.7 km/h 53% 0 mm
17:54 10.6 °C 1.1 °C 1018.2 hPa South 4.8 km/h 9.7 km/h 52% 0 mm
17:59 10.6 °C 1.2 °C 1018.2 hPa South 6.4 km/h 6.4 km/h 52% 0 mm
18:04 10.7 °C 1.2 °C 1017.8 hPa South 4.8 km/h 9.7 km/h 52% 0 mm
18:09 10.7 °C 1.2 °C 1017.8 hPa South 4.8 km/h 9.7 km/h 52% 0 mm
18:14 10.7 °C 0.9 °C 1017.8 hPa SSW 9.7 km/h 11.3 km/h 51% 0 mm
18:19 10.7 °C 1 °C 1017.8 hPa SSW 6.4 km/h 12.9 km/h 51% 0 mm
18:24 10.7 °C 0.9 °C 1017.8 hPa South 6.4 km/h 12.9 km/h 51% 0 mm
18:29 10.7 °C 1 °C 1017.5 hPa South 8 km/h 11.3 km/h 51% 0 mm
18:34 10.8 °C 1.3 °C 1017.8 hPa SSE 6.4 km/h 12.9 km/h 52% 0 mm
18:39 10.8 °C 1.1 °C 1017.5 hPa South 6.4 km/h 12.9 km/h 51% 0 mm
18:44 10.8 °C 1.3 °C 1017.5 hPa SSW 6.4 km/h 11.3 km/h 52% 0 mm
18:49 10.7 °C 1 °C 1017.5 hPa South 6.4 km/h 14.5 km/h 51% 0 mm
18:59 10.8 °C 1.1 °C 1017.2 hPa South 6.4 km/h 12.9 km/h 51% 0 mm
19:04 10.8 °C 1.1 °C 1017.2 hPa South 4.8 km/h 11.3 km/h 51% 0 mm
19:09 10.8 °C 1.1 °C 1017.2 hPa South 6.4 km/h 11.3 km/h 51% 0 mm
19:14 10.8 °C 1.1 °C 1017.2 hPa SSE 9.7 km/h 12.9 km/h 51% 0 mm
19:19 10.7 °C 1.3 °C 1016.8 hPa South 4.8 km/h 12.9 km/h 52% 0 mm
19:24 10.7 °C 1 °C 1016.5 hPa SSE 4.8 km/h 11.3 km/h 51% 0 mm
19:29 10.8 °C 1.1 °C 1016.5 hPa South 3.2 km/h 12.9 km/h 51% 0 mm
19:34 10.8 °C 1.1 °C 1016.1 hPa South 9.7 km/h 12.9 km/h 51% 0 mm
19:39 10.8 °C 1.1 °C 1016.1 hPa South 8 km/h 14.5 km/h 51% 0 mm
19:44 10.8 °C 1.1 °C 1016.1 hPa SSE 9.7 km/h 12.9 km/h 51% 0 mm
19:49 10.8 °C 1.1 °C 1016.1 hPa SSE 8 km/h 14.5 km/h 51% 0 mm
19:54 10.9 °C 0.9 °C 1016.1 hPa South 9.7 km/h 17.7 km/h 50% 0 mm
19:59 10.9 °C 1.1 °C 1016.1 hPa South 8 km/h 17.7 km/h 51% 0 mm
20:04 10.8 °C 1.1 °C 1016.1 hPa SSE 12.9 km/h 14.5 km/h 51% 0 mm
20:09 10.8 °C 1.1 °C 1015.8 hPa South 11.3 km/h 17.7 km/h 51% 0 mm
20:14 10.8 °C 1.1 °C 1015.5 hPa SSW 11.3 km/h 14.5 km/h 51% 0 mm
20:19 10.8 °C 1.1 °C 1015.5 hPa SSE 8 km/h 19.3 km/h 51% 0 mm
20:24 10.8 °C 1.1 °C 1015.5 hPa SSE 9.7 km/h 19.3 km/h 51% 0 mm
20:29 10.8 °C 1.1 °C 1015.5 hPa South 9.7 km/h 24.1 km/h 51% 0 mm
20:34 10.8 °C 1.1 °C 1015.1 hPa South 9.7 km/h 24.1 km/h 51% 0 mm
20:39 10.8 °C 1.1 °C 1015.1 hPa SSE 12.9 km/h 19.3 km/h 51% 0 mm
20:44 10.8 °C 1.1 °C 1015.1 hPa South 17.7 km/h 20.9 km/h 51% 0 mm
20:49 10.9 °C 1.1 °C 1014.8 hPa SSE 11.3 km/h 20.9 km/h 51% 0 mm
20:54 10.8 °C 1.1 °C 1014.8 hPa SSE 9.7 km/h 20.9 km/h 51% 0 mm
20:59 10.8 °C 1.3 °C 1014.8 hPa SSE 8 km/h 16.1 km/h 52% 0 mm
21:09 10.7 °C 1.3 °C 1014.8 hPa South 8 km/h 16.1 km/h 52% 0 mm
21:14 10.7 °C 1.2 °C 1014.4 hPa South 4.8 km/h 11.3 km/h 52% 0 mm
21:19 10.7 °C 1.2 °C 1014.4 hPa SSE 6.4 km/h 14.5 km/h 52% 0 mm
21:24 10.7 °C 1.2 °C 1014.4 hPa SSE 6.4 km/h 14.5 km/h 52% 0 mm
21:29 10.7 °C 1.2 °C 1014.1 hPa SSE 8 km/h 16.1 km/h 52% 0 mm
21:34 10.7 °C 1.3 °C 1014.1 hPa SSE 6.4 km/h 17.7 km/h 52% 0 mm
21:39 10.7 °C 1.3 °C 1014.1 hPa SSE 4.8 km/h 14.5 km/h 52% 0 mm
21:44 10.7 °C 1.3 °C 1013.8 hPa SE 14.5 km/h 17.7 km/h 52% 0 mm
21:49 10.8 °C 1.3 °C 1013.8 hPa South 14.5 km/h 24.1 km/h 52% 0 mm
21:54 10.8 °C 1.3 °C 1013.8 hPa South 11.3 km/h 24.1 km/h 52% 0 mm
21:59 10.8 °C 1.3 °C 1013.4 hPa South 9.7 km/h 22.5 km/h 52% 0 mm
22:04 10.8 °C 1.3 °C 1013.4 hPa South 9.7 km/h 20.9 km/h 52% 0 mm
22:09 10.8 °C 1.3 °C 1013.4 hPa South 12.9 km/h 22.5 km/h 52% 0 mm
22:14 10.8 °C 1.3 °C 1013.4 hPa SSE 8 km/h 20.9 km/h 52% 0 mm
22:19 10.8 °C 1.3 °C 1013.4 hPa SW 4.8 km/h 16.1 km/h 52% 0 mm
22:24 10.8 °C 1.3 °C 1013.4 hPa South 9.7 km/h 20.9 km/h 52% 0 mm
22:29 10.8 °C 1.3 °C 1013.8 hPa South 9.7 km/h 20.9 km/h 52% 0 mm
22:34 10.8 °C 1.3 °C 1013.4 hPa SSE 9.7 km/h 17.7 km/h 52% 0 mm
22:39 10.9 °C 1.2 °C 1013.4 hPa South 6.4 km/h 16.1 km/h 51% 0 mm
22:44 10.9 °C 1.2 °C 1013.4 hPa South 8 km/h 19.3 km/h 51% 0 mm
22:49 11.1 °C 1.3 °C 1013.4 hPa SE 14.5 km/h 17.7 km/h 51% 0 mm
22:54 11.1 °C 1.3 °C 1013.4 hPa South 9.7 km/h 17.7 km/h 51% 0 mm
22:59 11.1 °C 1.3 °C 1013.4 hPa South 8 km/h 16.1 km/h 51% 0 mm
23:04 10.9 °C 1.1 °C 1013.8 hPa South 6.4 km/h 14.5 km/h 51% 0 mm
23:14 11 °C 1.2 °C 1013.8 hPa SSW 4.8 km/h 20.9 km/h 51% 0 mm
23:19 11.1 °C 1.3 °C 1013.8 hPa SSE 6.4 km/h 16.1 km/h 51% 0 mm
23:24 11.2 °C 1.4 °C 1013.4 hPa South 11.3 km/h 27.4 km/h 51% 0 mm
23:29 11.3 °C 1.2 °C 1013.4 hPa South 6.4 km/h 27.4 km/h 50% 0 mm
23:34 11.3 °C 1.2 °C 1013.4 hPa SSW 11.3 km/h 22.5 km/h 50% 0 mm
23:39 11.4 °C 1.3 °C 1013.1 hPa SSE 6.4 km/h 24.1 km/h 50% 0 mm
23:44 11.4 °C 1.3 °C 1013.1 hPa South 12.9 km/h 24.1 km/h 50% 0 mm
23:49 11.4 °C 1.3 °C 1013.1 hPa South 12.9 km/h 24.1 km/h 50% 0 mm
23:54 11.4 °C 1.3 °C 1013.1 hPa South 12.9 km/h 24.1 km/h 50% 0 mm
23:59 11.4 °C 1.3 °C 1012.8 hPa South 9.7 km/h 19.3 km/h 50% 0 mm
Buffalo, New York, USA
Compliments of Weather Underground - 2.5 mb